sensor_id;sensor_type;location;lat;lon;timestamp;P1;durP1;ratioP1;P2;durP2;ratioP2
33413;SDS011;60055;41.884;12.534;2023-07-16T00:02:01;31.98;;;8.43;;
33413;SDS011;60055;41.884;12.534;2023-07-16T00:04:27;31.70;;;8.27;;
33413;SDS011;60055;41.884;12.534;2023-07-16T00:06:52;31.27;;;8.68;;
33413;SDS011;60055;41.884;12.534;2023-07-16T00:09:17;26.80;;;7.85;;
33413;SDS011;60055;41.884;12.534;2023-07-16T00:11:43;33.13;;;8.23;;
33413;SDS011;60055;41.884;12.534;2023-07-16T00:14:10;29.35;;;8.40;;
33413;SDS011;60055;41.884;12.534;2023-07-16T00:16:37;29.23;;;8.38;;
33413;SDS011;60055;41.884;12.534;2023-07-16T00:19:02;25.40;;;8.40;;
33413;SDS011;60055;41.884;12.534;2023-07-16T00:21:28;22.60;;;8.25;;
33413;SDS011;60055;41.884;12.534;2023-07-16T00:23:53;32.70;;;9.15;;
33413;SDS011;60055;41.884;12.534;2023-07-16T00:26:19;31.23;;;8.85;;
33413;SDS011;60055;41.884;12.534;2023-07-16T00:28:44;32.13;;;8.63;;
33413;SDS011;60055;41.884;12.534;2023-07-16T00:31:10;25.35;;;8.07;;
33413;SDS011;60055;41.884;12.534;2023-07-16T00:33:35;26.90;;;8.65;;
33413;SDS011;60055;41.884;12.534;2023-07-16T00:36:01;28.00;;;8.63;;
33413;SDS011;60055;41.884;12.534;2023-07-16T00:38:26;22.63;;;7.95;;
33413;SDS011;60055;41.884;12.534;2023-07-16T00:40:52;23.65;;;7.97;;
33413;SDS011;60055;41.884;12.534;2023-07-16T00:43:17;22.25;;;8.48;;
33413;SDS011;60055;41.884;12.534;2023-07-16T00:45:43;27.13;;;8.77;;
33413;SDS011;60055;41.884;12.534;2023-07-16T00:48:10;26.98;;;8.57;;
33413;SDS011;60055;41.884;12.534;2023-07-16T00:50:37;25.67;;;8.55;;
33413;SDS011;60055;41.884;12.534;2023-07-16T00:53:08;24.20;;;8.65;;
33413;SDS011;60055;41.884;12.534;2023-07-16T00:55:35;23.13;;;7.65;;
33413;SDS011;60055;41.884;12.534;2023-07-16T00:58:02;22.23;;;8.40;;
33413;SDS011;60055;41.884;12.534;2023-07-16T01:00:32;27.50;;;8.52;;
33413;SDS011;60055;41.884;12.534;2023-07-16T01:02:59;24.80;;;8.45;;
33413;SDS011;60055;41.884;12.534;2023-07-16T01:05:27;26.70;;;8.68;;
33413;SDS011;60055;41.884;12.534;2023-07-16T01:07:59;24.13;;;8.77;;
33413;SDS011;60055;41.884;12.534;2023-07-16T01:10:28;24.20;;;8.77;;
33413;SDS011;60055;41.884;12.534;2023-07-16T01:12:55;19.90;;;8.10;;
33413;SDS011;60055;41.884;12.534;2023-07-16T01:15:21;25.20;;;8.82;;
33413;SDS011;60055;41.884;12.534;2023-07-16T01:17:47;23.10;;;7.82;;
33413;SDS011;60055;41.884;12.534;2023-07-16T01:20:13;23.95;;;7.78;;
33413;SDS011;60055;41.884;12.534;2023-07-16T01:26:02;18.63;;;7.60;;
33413;SDS011;60055;41.884;12.534;2023-07-16T01:31:59;23.58;;;8.18;;
33413;SDS011;60055;41.884;12.534;2023-07-16T01:34:26;25.60;;;7.88;;
33413;SDS011;60055;41.884;12.534;2023-07-16T01:36:55;24.80;;;8.30;;
33413;SDS011;60055;41.884;12.534;2023-07-16T01:39:20;29.50;;;8.73;;
33413;SDS011;60055;41.884;12.534;2023-07-16T01:41:46;26.83;;;8.45;;
33413;SDS011;60055;41.884;12.534;2023-07-16T01:44:12;26.25;;;8.07;;
33413;SDS011;60055;41.884;12.534;2023-07-16T01:46:37;24.50;;;8.32;;
33413;SDS011;60055;41.884;12.534;2023-07-16T01:49:02;32.13;;;9.23;;
33413;SDS011;60055;41.884;12.534;2023-07-16T01:51:28;27.42;;;8.63;;
33413;SDS011;60055;41.884;12.534;2023-07-16T01:53:53;29.50;;;8.88;;
33413;SDS011;60055;41.884;12.534;2023-07-16T01:56:19;27.05;;;8.60;;
33413;SDS011;60055;41.884;12.534;2023-07-16T01:58:45;31.40;;;8.98;;
33413;SDS011;60055;41.884;12.534;2023-07-16T02:01:10;28.52;;;9.10;;
33413;SDS011;60055;41.884;12.534;2023-07-16T02:03:35;32.90;;;10.20;;
33413;SDS011;60055;41.884;12.534;2023-07-16T02:06:01;33.60;;;9.57;;
33413;SDS011;60055;41.884;12.534;2023-07-16T02:08:26;30.70;;;9.25;;
33413;SDS011;60055;41.884;12.534;2023-07-16T02:10:52;24.92;;;9.63;;
33413;SDS011;60055;41.884;12.534;2023-07-16T02:13:17;25.80;;;8.70;;
33413;SDS011;60055;41.884;12.534;2023-07-16T02:15:43;27.85;;;9.15;;
33413;SDS011;60055;41.884;12.534;2023-07-16T02:18:09;26.20;;;9.15;;
33413;SDS011;60055;41.884;12.534;2023-07-16T02:20:34;23.10;;;8.38;;
33413;SDS011;60055;41.884;12.534;2023-07-16T02:23:00;22.05;;;8.48;;
33413;SDS011;60055;41.884;12.534;2023-07-16T02:25:25;30.05;;;8.23;;
33413;SDS011;60055;41.884;12.534;2023-07-16T02:27:51;26.73;;;8.50;;
33413;SDS011;60055;41.884;12.534;2023-07-16T02:30:16;26.92;;;9.43;;
33413;SDS011;60055;41.884;12.534;2023-07-16T02:32:42;28.65;;;8.93;;
33413;SDS011;60055;41.884;12.534;2023-07-16T02:35:08;29.33;;;8.50;;
33413;SDS011;60055;41.884;12.534;2023-07-16T02:37:34;28.23;;;8.18;;
33413;SDS011;60055;41.884;12.534;2023-07-16T02:39:59;22.80;;;8.13;;
33413;SDS011;60055;41.884;12.534;2023-07-16T02:42:25;26.30;;;8.45;;
33413;SDS011;60055;41.884;12.534;2023-07-16T02:44:51;28.02;;;8.77;;
33413;SDS011;60055;41.884;12.534;2023-07-16T02:47:16;26.60;;;9.02;;
33413;SDS011;60055;41.884;12.534;2023-07-16T02:49:42;32.03;;;9.00;;
33413;SDS011;60055;41.884;12.534;2023-07-16T02:52:07;26.35;;;8.45;;
33413;SDS011;60055;41.884;12.534;2023-07-16T02:54:34;23.88;;;8.20;;
33413;SDS011;60055;41.884;12.534;2023-07-16T02:57:01;24.80;;;8.88;;
33413;SDS011;60055;41.884;12.534;2023-07-16T02:59:27;25.27;;;8.27;;
33413;SDS011;60055;41.884;12.534;2023-07-16T03:01:52;22.98;;;8.43;;
33413;SDS011;60055;41.884;12.534;2023-07-16T03:04:18;26.60;;;8.43;;
33413;SDS011;60055;41.884;12.534;2023-07-16T03:06:44;21.40;;;8.45;;
33413;SDS011;60055;41.884;12.534;2023-07-16T03:09:09;28.25;;;8.10;;
33413;SDS011;60055;41.884;12.534;2023-07-16T03:11:35;21.08;;;8.02;;
33413;SDS011;60055;41.884;12.534;2023-07-16T03:14:00;24.45;;;8.40;;
33413;SDS011;60055;41.884;12.534;2023-07-16T03:16:26;28.95;;;8.50;;
33413;SDS011;60055;41.884;12.534;2023-07-16T03:18:52;22.33;;;7.93;;
33413;SDS011;60055;41.884;12.534;2023-07-16T03:21:18;23.67;;;8.45;;
33413;SDS011;60055;41.884;12.534;2023-07-16T03:23:43;27.55;;;8.32;;
33413;SDS011;60055;41.884;12.534;2023-07-16T03:26:08;21.42;;;7.95;;
33413;SDS011;60055;41.884;12.534;2023-07-16T03:28:34;18.73;;;7.60;;
33413;SDS011;60055;41.884;12.534;2023-07-16T03:30:59;22.10;;;7.80;;
33413;SDS011;60055;41.884;12.534;2023-07-16T03:33:25;15.70;;;7.47;;
33413;SDS011;60055;41.884;12.534;2023-07-16T03:35:50;18.33;;;7.70;;
33413;SDS011;60055;41.884;12.534;2023-07-16T03:38:16;24.27;;;7.38;;
33413;SDS011;60055;41.884;12.534;2023-07-16T03:40:42;25.98;;;8.07;;
33413;SDS011;60055;41.884;12.534;2023-07-16T03:43:11;20.70;;;7.53;;
33413;SDS011;60055;41.884;12.534;2023-07-16T03:45:37;25.50;;;7.43;;
33413;SDS011;60055;41.884;12.534;2023-07-16T03:48:02;24.27;;;8.30;;
33413;SDS011;60055;41.884;12.534;2023-07-16T03:50:28;14.70;;;7.20;;
33413;SDS011;60055;41.884;12.534;2023-07-16T03:52:53;21.08;;;7.40;;
33413;SDS011;60055;41.884;12.534;2023-07-16T03:55:18;17.13;;;6.88;;
33413;SDS011;60055;41.884;12.534;2023-07-16T03:57:44;18.77;;;7.68;;
33413;SDS011;60055;41.884;12.534;2023-07-16T04:00:10;17.42;;;7.40;;
33413;SDS011;60055;41.884;12.534;2023-07-16T04:02:36;19.90;;;7.22;;
33413;SDS011;60055;41.884;12.534;2023-07-16T04:05:02;17.75;;;7.18;;
33413;SDS011;60055;41.884;12.534;2023-07-16T04:07:28;25.00;;;7.53;;
33413;SDS011;60055;41.884;12.534;2023-07-16T04:09:54;19.60;;;7.10;;
33413;SDS011;60055;41.884;12.534;2023-07-16T04:12:19;23.38;;;7.88;;
33413;SDS011;60055;41.884;12.534;2023-07-16T04:14:45;17.98;;;7.20;;
33413;SDS011;60055;41.884;12.534;2023-07-16T04:17:11;19.65;;;6.93;;
33413;SDS011;60055;41.884;12.534;2023-07-16T04:19:37;18.52;;;6.85;;
33413;SDS011;60055;41.884;12.534;2023-07-16T04:22:03;18.25;;;7.00;;
33413;SDS011;60055;41.884;12.534;2023-07-16T04:24:28;22.63;;;7.10;;
33413;SDS011;60055;41.884;12.534;2023-07-16T04:26:54;24.52;;;7.25;;
33413;SDS011;60055;41.884;12.534;2023-07-16T04:29:19;20.50;;;6.82;;
33413;SDS011;60055;41.884;12.534;2023-07-16T04:31:45;20.52;;;6.65;;
33413;SDS011;60055;41.884;12.534;2023-07-16T04:34:10;20.67;;;6.80;;
33413;SDS011;60055;41.884;12.534;2023-07-16T04:36:36;16.67;;;6.90;;
33413;SDS011;60055;41.884;12.534;2023-07-16T04:39:02;21.67;;;6.53;;
33413;SDS011;60055;41.884;12.534;2023-07-16T04:41:27;21.70;;;7.15;;
33413;SDS011;60055;41.884;12.534;2023-07-16T04:43:53;16.95;;;6.78;;
33413;SDS011;60055;41.884;12.534;2023-07-16T04:46:18;17.98;;;6.93;;
33413;SDS011;60055;41.884;12.534;2023-07-16T04:48:44;18.70;;;7.03;;
33413;SDS011;60055;41.884;12.534;2023-07-16T04:51:09;19.60;;;7.05;;
33413;SDS011;60055;41.884;12.534;2023-07-16T04:53:34;16.67;;;6.53;;
33413;SDS011;60055;41.884;12.534;2023-07-16T04:56:00;19.67;;;6.60;;
33413;SDS011;60055;41.884;12.534;2023-07-16T04:58:25;17.00;;;6.30;;
33413;SDS011;60055;41.884;12.534;2023-07-16T05:00:51;18.67;;;6.47;;
33413;SDS011;60055;41.884;12.534;2023-07-16T05:03:16;16.95;;;6.75;;
33413;SDS011;60055;41.884;12.534;2023-07-16T05:05:42;18.95;;;6.18;;
33413;SDS011;60055;41.884;12.534;2023-07-16T05:08:07;14.95;;;5.85;;
33413;SDS011;60055;41.884;12.534;2023-07-16T05:10:33;13.05;;;6.00;;
33413;SDS011;60055;41.884;12.534;2023-07-16T05:12:58;17.55;;;6.22;;
33413;SDS011;60055;41.884;12.534;2023-07-16T05:15:24;15.07;;;6.38;;
33413;SDS011;60055;41.884;12.534;2023-07-16T05:17:50;16.60;;;6.50;;
33413;SDS011;60055;41.884;12.534;2023-07-16T05:20:15;17.98;;;6.28;;
33413;SDS011;60055;41.884;12.534;2023-07-16T05:22:41;18.63;;;5.93;;
33413;SDS011;60055;41.884;12.534;2023-07-16T05:25:06;17.58;;;6.05;;
33413;SDS011;60055;41.884;12.534;2023-07-16T05:27:32;14.77;;;6.40;;
33413;SDS011;60055;41.884;12.534;2023-07-16T05:29:57;15.13;;;5.80;;
33413;SDS011;60055;41.884;12.534;2023-07-16T05:32:23;12.48;;;5.80;;
33413;SDS011;60055;41.884;12.534;2023-07-16T05:34:49;14.60;;;5.72;;
33413;SDS011;60055;41.884;12.534;2023-07-16T05:37:14;19.02;;;6.30;;
33413;SDS011;60055;41.884;12.534;2023-07-16T05:39:39;16.85;;;6.22;;
33413;SDS011;60055;41.884;12.534;2023-07-16T05:42:05;16.38;;;5.82;;
33413;SDS011;60055;41.884;12.534;2023-07-16T05:44:31;19.08;;;6.35;;
33413;SDS011;60055;41.884;12.534;2023-07-16T05:46:56;15.32;;;6.03;;
33413;SDS011;60055;41.884;12.534;2023-07-16T05:49:23;16.98;;;6.25;;
33413;SDS011;60055;41.884;12.534;2023-07-16T05:51:49;15.25;;;5.70;;
33413;SDS011;60055;41.884;12.534;2023-07-16T05:54:15;19.35;;;6.13;;
33413;SDS011;60055;41.884;12.534;2023-07-16T05:56:40;14.95;;;5.93;;
33413;SDS011;60055;41.884;12.534;2023-07-16T05:59:06;15.52;;;6.82;;
33413;SDS011;60055;41.884;12.534;2023-07-16T06:01:31;16.00;;;6.38;;
33413;SDS011;60055;41.884;12.534;2023-07-16T06:03:57;14.13;;;5.45;;
33413;SDS011;60055;41.884;12.534;2023-07-16T06:06:41;14.13;;;5.50;;
33413;SDS011;60055;41.884;12.534;2023-07-16T06:12:31;11.93;;;5.38;;
33413;SDS011;60055;41.884;12.534;2023-07-16T06:15:08;16.85;;;6.20;;
33413;SDS011;60055;41.884;12.534;2023-07-16T06:17:45;17.40;;;5.72;;
33413;SDS011;60055;41.884;12.534;2023-07-16T06:20:11;18.38;;;6.35;;
33413;SDS011;60055;41.884;12.534;2023-07-16T06:22:45;14.57;;;5.38;;
33413;SDS011;60055;41.884;12.534;2023-07-16T06:25:10;20.10;;;5.75;;
33413;SDS011;60055;41.884;12.534;2023-07-16T06:27:41;18.95;;;5.97;;
33413;SDS011;60055;41.884;12.534;2023-07-16T06:30:10;21.33;;;6.22;;
33413;SDS011;60055;41.884;12.534;2023-07-16T06:32:35;17.88;;;6.30;;
33413;SDS011;60055;41.884;12.534;2023-07-16T06:35:01;16.52;;;5.95;;
33413;SDS011;60055;41.884;12.534;2023-07-16T06:37:27;18.30;;;6.13;;
33413;SDS011;60055;41.884;12.534;2023-07-16T06:39:52;15.00;;;5.82;;
33413;SDS011;60055;41.884;12.534;2023-07-16T06:42:18;19.00;;;5.97;;
33413;SDS011;60055;41.884;12.534;2023-07-16T06:44:43;17.50;;;5.85;;
33413;SDS011;60055;41.884;12.534;2023-07-16T06:47:24;17.27;;;5.80;;
33413;SDS011;60055;41.884;12.534;2023-07-16T06:49:50;14.45;;;6.57;;
33413;SDS011;60055;41.884;12.534;2023-07-16T06:52:24;15.38;;;6.00;;
33413;SDS011;60055;41.884;12.534;2023-07-16T06:54:52;20.75;;;5.97;;
33413;SDS011;60055;41.884;12.534;2023-07-16T06:57:24;26.13;;;6.55;;
33413;SDS011;60055;41.884;12.534;2023-07-16T06:59:50;16.17;;;5.63;;
33413;SDS011;60055;41.884;12.534;2023-07-16T07:02:16;17.30;;;6.50;;
33413;SDS011;60055;41.884;12.534;2023-07-16T07:04:42;19.30;;;6.07;;
33413;SDS011;60055;41.884;12.534;2023-07-16T07:07:07;24.75;;;7.10;;
33413;SDS011;60055;41.884;12.534;2023-07-16T07:09:33;19.95;;;6.40;;
33413;SDS011;60055;41.884;12.534;2023-07-16T07:11:59;21.90;;;6.15;;
33413;SDS011;60055;41.884;12.534;2023-07-16T07:14:24;25.42;;;6.22;;
33413;SDS011;60055;41.884;12.534;2023-07-16T07:16:50;34.65;;;7.05;;
33413;SDS011;60055;41.884;12.534;2023-07-16T07:19:15;22.17;;;6.03;;
33413;SDS011;60055;41.884;12.534;2023-07-16T07:21:41;16.15;;;6.40;;
33413;SDS011;60055;41.884;12.534;2023-07-16T07:24:06;16.27;;;5.95;;
33413;SDS011;60055;41.884;12.534;2023-07-16T07:26:32;20.70;;;6.53;;
33413;SDS011;60055;41.884;12.534;2023-07-16T07:28:57;17.50;;;5.78;;
33413;SDS011;60055;41.884;12.534;2023-07-16T07:31:22;17.40;;;6.13;;
33413;SDS011;60055;41.884;12.534;2023-07-16T07:33:48;24.10;;;6.25;;
33413;SDS011;60055;41.884;12.534;2023-07-16T07:36:13;18.95;;;5.70;;
33413;SDS011;60055;41.884;12.534;2023-07-16T07:38:39;23.92;;;6.93;;
33413;SDS011;60055;41.884;12.534;2023-07-16T07:41:04;17.10;;;5.95;;
33413;SDS011;60055;41.884;12.534;2023-07-16T07:43:31;17.08;;;6.57;;
33413;SDS011;60055;41.884;12.534;2023-07-16T07:45:56;15.40;;;6.07;;
33413;SDS011;60055;41.884;12.534;2023-07-16T07:48:21;18.38;;;6.25;;
33413;SDS011;60055;41.884;12.534;2023-07-16T07:50:47;13.60;;;6.00;;
33413;SDS011;60055;41.884;12.534;2023-07-16T07:53:12;17.85;;;6.22;;
33413;SDS011;60055;41.884;12.534;2023-07-16T07:55:39;21.48;;;6.30;;
33413;SDS011;60055;41.884;12.534;2023-07-16T07:58:05;18.75;;;6.07;;
33413;SDS011;60055;41.884;12.534;2023-07-16T08:00:31;18.98;;;6.30;;
33413;SDS011;60055;41.884;12.534;2023-07-16T08:02:56;15.57;;;6.22;;
33413;SDS011;60055;41.884;12.534;2023-07-16T08:05:22;17.67;;;6.20;;
33413;SDS011;60055;41.884;12.534;2023-07-16T08:07:47;17.33;;;5.93;;
33413;SDS011;60055;41.884;12.534;2023-07-16T08:10:13;17.05;;;5.93;;
33413;SDS011;60055;41.884;12.534;2023-07-16T08:12:38;16.83;;;5.25;;
33413;SDS011;60055;41.884;12.534;2023-07-16T08:15:03;14.98;;;5.60;;
33413;SDS011;60055;41.884;12.534;2023-07-16T08:17:30;15.15;;;6.43;;
33413;SDS011;60055;41.884;12.534;2023-07-16T08:19:56;19.63;;;6.30;;
33413;SDS011;60055;41.884;12.534;2023-07-16T08:22:21;21.33;;;5.85;;
33413;SDS011;60055;41.884;12.534;2023-07-16T08:24:48;17.67;;;6.25;;
33413;SDS011;60055;41.884;12.534;2023-07-16T08:27:15;14.68;;;6.10;;
33413;SDS011;60055;41.884;12.534;2023-07-16T08:29:41;13.02;;;4.95;;
33413;SDS011;60055;41.884;12.534;2023-07-16T08:32:06;15.05;;;5.60;;
33413;SDS011;60055;41.884;12.534;2023-07-16T08:34:32;16.73;;;5.65;;
33413;SDS011;60055;41.884;12.534;2023-07-16T08:36:58;21.15;;;6.40;;
33413;SDS011;60055;41.884;12.534;2023-07-16T08:39:23;14.35;;;5.75;;
33413;SDS011;60055;41.884;12.534;2023-07-16T08:41:48;15.07;;;5.97;;
33413;SDS011;60055;41.884;12.534;2023-07-16T08:44:14;15.55;;;5.60;;
33413;SDS011;60055;41.884;12.534;2023-07-16T08:46:40;13.63;;;5.57;;
33413;SDS011;60055;41.884;12.534;2023-07-16T08:49:06;17.10;;;5.60;;
33413;SDS011;60055;41.884;12.534;2023-07-16T08:51:32;13.20;;;5.18;;
33413;SDS011;60055;41.884;12.534;2023-07-16T08:54:00;13.50;;;5.18;;
33413;SDS011;60055;41.884;12.534;2023-07-16T08:56:26;16.73;;;5.93;;
33413;SDS011;60055;41.884;12.534;2023-07-16T08:58:52;23.42;;;8.90;;
33413;SDS011;60055;41.884;12.534;2023-07-16T09:01:21;27.95;;;11.40;;
33413;SDS011;60055;41.884;12.534;2023-07-16T09:03:46;17.77;;;5.80;;
33413;SDS011;60055;41.884;12.534;2023-07-16T09:06:12;12.40;;;5.13;;
33413;SDS011;60055;41.884;12.534;2023-07-16T09:08:44;14.60;;;5.77;;
33413;SDS011;60055;41.884;12.534;2023-07-16T09:11:12;20.83;;;5.90;;
33413;SDS011;60055;41.884;12.534;2023-07-16T09:13:46;14.52;;;6.00;;
33413;SDS011;60055;41.884;12.534;2023-07-16T09:16:12;18.58;;;5.80;;
33413;SDS011;60055;41.884;12.534;2023-07-16T09:18:39;17.08;;;6.07;;
33413;SDS011;60055;41.884;12.534;2023-07-16T09:21:05;18.13;;;5.43;;
33413;SDS011;60055;41.884;12.534;2023-07-16T09:23:31;15.45;;;5.55;;
33413;SDS011;60055;41.884;12.534;2023-07-16T09:25:58;20.00;;;6.05;;
33413;SDS011;60055;41.884;12.534;2023-07-16T09:28:23;15.82;;;6.00;;
33413;SDS011;60055;41.884;12.534;2023-07-16T09:30:49;21.15;;;5.85;;
33413;SDS011;60055;41.884;12.534;2023-07-16T09:33:17;15.30;;;5.40;;
33413;SDS011;60055;41.884;12.534;2023-07-16T09:35:44;14.38;;;5.63;;
33413;SDS011;60055;41.884;12.534;2023-07-16T09:38:16;15.35;;;5.80;;
33413;SDS011;60055;41.884;12.534;2023-07-16T09:40:42;21.13;;;6.20;;
33413;SDS011;60055;41.884;12.534;2023-07-16T09:43:09;15.82;;;5.88;;
33413;SDS011;60055;41.884;12.534;2023-07-16T09:45:35;15.00;;;5.63;;
33413;SDS011;60055;41.884;12.534;2023-07-16T09:48:02;19.10;;;6.18;;
33413;SDS011;60055;41.884;12.534;2023-07-16T09:50:29;17.02;;;5.75;;
33413;SDS011;60055;41.884;12.534;2023-07-16T09:52:58;18.85;;;6.00;;
33413;SDS011;60055;41.884;12.534;2023-07-16T09:55:24;13.98;;;5.18;;
33413;SDS011;60055;41.884;12.534;2023-07-16T09:57:53;18.15;;;5.35;;
33413;SDS011;60055;41.884;12.534;2023-07-16T10:00:21;16.73;;;6.25;;
33413;SDS011;60055;41.884;12.534;2023-07-16T10:02:49;14.57;;;5.18;;
33413;SDS011;60055;41.884;12.534;2023-07-16T10:05:16;13.80;;;5.10;;
33413;SDS011;60055;41.884;12.534;2023-07-16T10:07:43;15.45;;;5.38;;
33413;SDS011;60055;41.884;12.534;2023-07-16T10:10:16;14.95;;;4.75;;
33413;SDS011;60055;41.884;12.534;2023-07-16T10:12:42;12.52;;;4.70;;
33413;SDS011;60055;41.884;12.534;2023-07-16T10:15:24;12.10;;;4.93;;
33413;SDS011;60055;41.884;12.534;2023-07-16T10:17:51;16.47;;;4.90;;
33413;SDS011;60055;41.884;12.534;2023-07-16T10:20:16;11.40;;;3.85;;
33413;SDS011;60055;41.884;12.534;2023-07-16T10:22:43;13.60;;;4.30;;
33413;SDS011;60055;41.884;12.534;2023-07-16T10:27:43;11.63;;;3.88;;
33413;SDS011;60055;41.884;12.534;2023-07-16T10:30:10;9.52;;;3.90;;
33413;SDS011;60055;41.884;12.534;2023-07-16T10:32:36;15.68;;;4.05;;
33413;SDS011;60055;41.884;12.534;2023-07-16T10:35:03;17.42;;;3.95;;
33413;SDS011;60055;41.884;12.534;2023-07-16T10:37:29;10.27;;;3.92;;
33413;SDS011;60055;41.884;12.534;2023-07-16T10:39:56;13.80;;;3.97;;
33413;SDS011;60055;41.884;12.534;2023-07-16T10:42:24;10.32;;;3.90;;
33413;SDS011;60055;41.884;12.534;2023-07-16T10:45:11;14.05;;;4.78;;
33413;SDS011;60055;41.884;12.534;2023-07-16T10:47:37;14.52;;;4.07;;
33413;SDS011;60055;41.884;12.534;2023-07-16T10:50:05;16.73;;;4.68;;
33413;SDS011;60055;41.884;12.534;2023-07-16T10:52:33;12.77;;;4.20;;
33413;SDS011;60055;41.884;12.534;2023-07-16T10:54:59;11.57;;;4.22;;
33413;SDS011;60055;41.884;12.534;2023-07-16T10:57:25;15.32;;;5.00;;
33413;SDS011;60055;41.884;12.534;2023-07-16T10:59:51;10.90;;;5.22;;
33413;SDS011;60055;41.884;12.534;2023-07-16T11:02:17;11.48;;;4.72;;
33413;SDS011;60055;41.884;12.534;2023-07-16T11:04:43;11.55;;;4.43;;
33413;SDS011;60055;41.884;12.534;2023-07-16T11:07:11;14.05;;;4.70;;
33413;SDS011;60055;41.884;12.534;2023-07-16T11:09:44;13.20;;;4.70;;
33413;SDS011;60055;41.884;12.534;2023-07-16T11:12:14;23.85;;;6.20;;
33413;SDS011;60055;41.884;12.534;2023-07-16T11:14:47;21.80;;;6.72;;
33413;SDS011;60055;41.884;12.534;2023-07-16T11:17:15;18.30;;;6.47;;
33413;SDS011;60055;41.884;12.534;2023-07-16T11:19:44;19.90;;;6.10;;
33413;SDS011;60055;41.884;12.534;2023-07-16T11:22:10;18.17;;;6.30;;
33413;SDS011;60055;41.884;12.534;2023-07-16T11:24:36;22.02;;;6.40;;
33413;SDS011;60055;41.884;12.534;2023-07-16T11:27:03;18.55;;;5.80;;
33413;SDS011;60055;41.884;12.534;2023-07-16T11:29:34;18.00;;;5.88;;
33413;SDS011;60055;41.884;12.534;2023-07-16T11:32:01;18.87;;;6.10;;
33413;SDS011;60055;41.884;12.534;2023-07-16T11:34:26;18.27;;;6.30;;
33413;SDS011;60055;41.884;12.534;2023-07-16T11:36:51;23.27;;;6.80;;
33413;SDS011;60055;41.884;12.534;2023-07-16T11:39:17;19.38;;;6.28;;
33413;SDS011;60055;41.884;12.534;2023-07-16T11:41:53;24.55;;;6.20;;
33413;SDS011;60055;41.884;12.534;2023-07-16T11:44:19;17.15;;;6.60;;
33413;SDS011;60055;41.884;12.534;2023-07-16T11:46:46;18.45;;;6.18;;
33413;SDS011;60055;41.884;12.534;2023-07-16T11:49:11;21.23;;;6.90;;
33413;SDS011;60055;41.884;12.534;2023-07-16T11:51:37;17.85;;;6.55;;
33413;SDS011;60055;41.884;12.534;2023-07-16T11:54:02;18.67;;;6.63;;
33413;SDS011;60055;41.884;12.534;2023-07-16T11:56:28;19.48;;;6.60;;
33413;SDS011;60055;41.884;12.534;2023-07-16T11:58:53;19.73;;;6.32;;
33413;SDS011;60055;41.884;12.534;2023-07-16T12:01:18;17.02;;;6.10;;
33413;SDS011;60055;41.884;12.534;2023-07-16T12:03:44;19.80;;;5.72;;
33413;SDS011;60055;41.884;12.534;2023-07-16T12:06:09;22.15;;;6.53;;
33413;SDS011;60055;41.884;12.534;2023-07-16T12:08:35;23.52;;;6.72;;
33413;SDS011;60055;41.884;12.534;2023-07-16T12:11:00;18.30;;;6.05;;
33413;SDS011;60055;41.884;12.534;2023-07-16T12:13:26;18.30;;;6.00;;
33413;SDS011;60055;41.884;12.534;2023-07-16T12:15:51;18.17;;;6.35;;
33413;SDS011;60055;41.884;12.534;2023-07-16T12:18:16;18.88;;;6.40;;
33413;SDS011;60055;41.884;12.534;2023-07-16T12:20:42;19.23;;;6.43;;
33413;SDS011;60055;41.884;12.534;2023-07-16T12:23:08;16.48;;;5.80;;
33413;SDS011;60055;41.884;12.534;2023-07-16T12:25:34;19.02;;;5.90;;
33413;SDS011;60055;41.884;12.534;2023-07-16T12:28:00;22.20;;;6.57;;
33413;SDS011;60055;41.884;12.534;2023-07-16T12:30:26;21.85;;;6.75;;
33413;SDS011;60055;41.884;12.534;2023-07-16T12:32:52;24.60;;;5.50;;
33413;SDS011;60055;41.884;12.534;2023-07-16T12:35:17;17.50;;;6.07;;
33413;SDS011;60055;41.884;12.534;2023-07-16T12:37:43;19.85;;;5.97;;
33413;SDS011;60055;41.884;12.534;2023-07-16T12:40:08;23.65;;;5.70;;
33413;SDS011;60055;41.884;12.534;2023-07-16T12:42:34;19.15;;;5.72;;
33413;SDS011;60055;41.884;12.534;2023-07-16T12:45:00;19.42;;;5.78;;
33413;SDS011;60055;41.884;12.534;2023-07-16T12:47:26;16.98;;;5.38;;
33413;SDS011;60055;41.884;12.534;2023-07-16T12:49:51;17.92;;;5.25;;
33413;SDS011;60055;41.884;12.534;2023-07-16T12:52:17;18.45;;;5.70;;
33413;SDS011;60055;41.884;12.534;2023-07-16T12:54:42;19.02;;;4.90;;
33413;SDS011;60055;41.884;12.534;2023-07-16T12:57:08;19.15;;;5.68;;
33413;SDS011;60055;41.884;12.534;2023-07-16T12:59:33;16.52;;;4.93;;
33413;SDS011;60055;41.884;12.534;2023-07-16T13:01:58;18.95;;;5.38;;
33413;SDS011;60055;41.884;12.534;2023-07-16T13:04:24;14.50;;;5.32;;
33413;SDS011;60055;41.884;12.534;2023-07-16T13:06:49;13.90;;;4.85;;
33413;SDS011;60055;41.884;12.534;2023-07-16T13:09:15;14.98;;;5.03;;
33413;SDS011;60055;41.884;12.534;2023-07-16T13:11:41;11.88;;;4.63;;
33413;SDS011;60055;41.884;12.534;2023-07-16T13:14:07;10.40;;;4.57;;
33413;SDS011;60055;41.884;12.534;2023-07-16T13:16:33;12.25;;;4.68;;
33413;SDS011;60055;41.884;12.534;2023-07-16T13:18:58;13.52;;;4.60;;
33413;SDS011;60055;41.884;12.534;2023-07-16T13:21:23;10.07;;;4.15;;
33413;SDS011;60055;41.884;12.534;2023-07-16T13:23:49;10.60;;;4.10;;
33413;SDS011;60055;41.884;12.534;2023-07-16T13:26:14;12.63;;;3.97;;
33413;SDS011;60055;41.884;12.534;2023-07-16T13:28:40;14.80;;;4.35;;
33413;SDS011;60055;41.884;12.534;2023-07-16T13:31:05;18.40;;;4.35;;
33413;SDS011;60055;41.884;12.534;2023-07-16T13:33:31;15.70;;;4.60;;
33413;SDS011;60055;41.884;12.534;2023-07-16T13:35:56;16.38;;;4.35;;
33413;SDS011;60055;41.884;12.534;2023-07-16T13:38:25;11.98;;;4.32;;
33413;SDS011;60055;41.884;12.534;2023-07-16T13:40:50;13.35;;;4.30;;
33413;SDS011;60055;41.884;12.534;2023-07-16T13:43:16;16.23;;;4.53;;
33413;SDS011;60055;41.884;12.534;2023-07-16T13:45:41;17.20;;;4.53;;
33413;SDS011;60055;41.884;12.534;2023-07-16T13:48:07;19.98;;;4.55;;
33413;SDS011;60055;41.884;12.534;2023-07-16T13:50:32;18.10;;;4.63;;
33413;SDS011;60055;41.884;12.534;2023-07-16T13:52:58;15.00;;;5.25;;
33413;SDS011;60055;41.884;12.534;2023-07-16T13:55:26;16.95;;;4.68;;
33413;SDS011;60055;41.884;12.534;2023-07-16T13:57:53;10.95;;;4.28;;
33413;SDS011;60055;41.884;12.534;2023-07-16T14:00:20;18.58;;;4.50;;
33413;SDS011;60055;41.884;12.534;2023-07-16T14:02:46;12.70;;;4.03;;
33413;SDS011;60055;41.884;12.534;2023-07-16T14:05:11;19.80;;;4.57;;
33413;SDS011;60055;41.884;12.534;2023-07-16T14:07:37;9.85;;;4.40;;
33413;SDS011;60055;41.884;12.534;2023-07-16T14:10:02;15.45;;;4.20;;
33413;SDS011;60055;41.884;12.534;2023-07-16T14:12:28;13.32;;;4.40;;
33413;SDS011;60055;41.884;12.534;2023-07-16T14:14:53;17.15;;;4.28;;
33413;SDS011;60055;41.884;12.534;2023-07-16T14:17:19;14.10;;;4.30;;
33413;SDS011;60055;41.884;12.534;2023-07-16T14:19:45;18.10;;;5.10;;
33413;SDS011;60055;41.884;12.534;2023-07-16T14:22:10;15.50;;;4.70;;
33413;SDS011;60055;41.884;12.534;2023-07-16T14:24:37;14.90;;;4.55;;
33413;SDS011;60055;41.884;12.534;2023-07-16T14:27:04;12.35;;;4.07;;
33413;SDS011;60055;41.884;12.534;2023-07-16T14:29:31;14.00;;;3.92;;